createdAt,value
2019-06-07T00:02:18.826Z,101286.28
2019-06-07T00:04:48.489Z,101283.84
2019-06-07T00:07:21.621Z,101279.94
2019-06-07T00:09:49.041Z,101274.19
2019-06-07T00:12:21.414Z,101263.67
2019-06-07T00:14:49.625Z,101261.30
2019-06-07T00:17:20.269Z,101256.05
2019-06-07T00:19:50.231Z,101244.13
2019-06-07T00:22:32.228Z,101246.19
2019-06-07T00:24:51.135Z,101237.59
2019-06-07T00:27:22.492Z,101237.76
2019-06-07T00:29:51.758Z,101235.64
2019-06-07T00:32:21.977Z,101232.58
2019-06-07T00:34:51.809Z,101226.62
2019-06-07T00:37:25.292Z,101225.59
2019-06-07T00:40:12.853Z,101227.08
2019-06-07T00:42:24.256Z,101221.41
2019-06-07T00:44:54.176Z,101223.13
2019-06-07T00:47:25.520Z,101221.62
2019-06-07T00:49:54.775Z,101222.09
2019-06-07T00:53:11.560Z,101224.36
2019-06-07T00:54:55.443Z,101223.78
2019-06-07T00:57:25.020Z,101227.36
2019-06-07T00:59:54.592Z,101222.72
2019-06-07T01:02:28.422Z,101224.41
2019-06-07T01:04:55.314Z,101228.36
2019-06-07T01:07:24.829Z,101220.63
2019-06-07T01:09:54.392Z,101218.03
2019-06-07T01:12:26.660Z,101221.35
2019-06-07T01:14:54.959Z,101208.23
2019-06-07T01:17:41.693Z,101202.48
2019-06-07T01:20:00.459Z,101204.28
2019-06-07T01:22:29.875Z,101199.80
2019-06-07T01:24:59.282Z,101187.31
2019-06-07T01:27:28.930Z,101187.20
2019-06-07T01:29:58.467Z,101186.48
2019-06-07T01:32:31.475Z,101182.30
2019-06-07T01:34:59.037Z,101180.67
2019-06-07T01:37:30.233Z,101177.65
2019-06-07T01:39:59.620Z,101176.19
2019-06-07T01:42:30.976Z,101175.61
2019-06-07T01:45:00.288Z,101176.03
2019-06-07T01:47:32.018Z,101168.28
2019-06-07T01:50:00.916Z,101172.77
2019-06-07T01:52:30.334Z,101163.89
2019-06-07T01:54:59.797Z,101164.79
2019-06-07T01:57:44.834Z,101152.70
2019-06-07T02:00:00.483Z,101151.89
2019-06-07T02:02:31.834Z,101144.04
2019-06-07T02:05:01.464Z,101138.81
2019-06-07T02:07:33.213Z,101135.30
2019-06-07T02:10:02.086Z,101124.86
2019-06-07T02:12:40.772Z,101116.83
2019-06-07T02:15:03.423Z,101117.11
2019-06-07T02:17:33.392Z,101106.23
2019-06-07T02:20:03.120Z,101103.87
2019-06-07T02:22:32.700Z,101101.56
2019-06-07T02:25:37.340Z,101100.14
2019-06-07T02:27:33.389Z,101097.83
2019-06-07T02:30:35.623Z,101100.70
2019-06-07T02:32:36.778Z,101096.77
2019-06-07T02:35:07.700Z,101097.47
2019-06-07T02:37:37.687Z,101101.66
2019-06-07T02:40:09.225Z,101103.62
2019-06-07T02:42:42.586Z,101101.17
2019-06-07T02:45:11.336Z,101101.50
2019-06-07T02:47:41.396Z,101095.56
2019-06-07T02:50:12.135Z,101079.84
2019-06-07T02:52:42.528Z,101074.70
2019-06-07T02:55:14.691Z,101069.23
2019-06-07T02:57:44.072Z,101071.84
2019-06-07T03:00:58.910Z,101071.58
2019-06-07T03:03:05.164Z,101064.83
2019-06-07T03:05:38.790Z,101068.55
2019-06-07T03:08:05.928Z,101059.92
2019-06-07T03:10:39.864Z,101060.75
2019-06-07T03:13:10.339Z,101060.48
2019-06-07T03:15:49.301Z,101054.89
2019-06-07T03:18:29.089Z,101049.72
2019-06-07T03:21:05.172Z,101051.70
2019-06-07T03:23:32.485Z,101053.34
2019-06-07T03:26:06.912Z,101052.69
2019-06-07T03:28:37.998Z,101051.50
2019-06-07T03:31:07.858Z,101051.27
2019-06-07T03:33:42.936Z,101056.98
2019-06-07T03:36:23.187Z,101052.91
2019-06-07T03:38:40.006Z,101045.91
2019-06-07T03:41:09.523Z,101030.23
2019-06-07T03:43:40.715Z,101031.13
2019-06-07T03:46:10.173Z,101024.28
2019-06-07T03:48:41.372Z,101017.91
2019-06-07T03:51:24.070Z,101020.78
2019-06-07T03:53:41.894Z,101016.77
2019-06-07T03:56:12.542Z,101012.34
2019-06-07T03:58:49.819Z,101012.60
2019-06-07T04:01:13.732Z,101007.38
2019-06-07T04:03:51.038Z,100994.54
2019-06-07T04:06:14.250Z,100990.00
2019-06-07T04:08:44.026Z,100987.67
2019-06-07T04:11:13.422Z,100984.81
2019-06-07T04:13:43.297Z,100985.50
2019-06-07T04:16:12.849Z,100984.27
2019-06-07T04:18:42.636Z,100983.13
2019-06-07T04:21:12.178Z,100971.77
2019-06-07T04:23:45.526Z,100965.73
2019-06-07T04:26:12.817Z,100962.45
2019-06-07T04:29:30.210Z,100949.53
2019-06-07T04:31:13.525Z,100945.70
2019-06-07T04:33:43.920Z,100939.55
2019-06-07T04:36:13.956Z,100927.33
2019-06-07T04:38:44.409Z,100922.78
2019-06-07T04:41:15.430Z,100919.52
2019-06-07T04:43:45.963Z,100915.66
2019-06-07T04:46:16.676Z,100914.98
2019-06-07T04:48:47.024Z,100909.06
2019-06-07T04:51:17.349Z,100901.32
2019-06-07T04:53:46.830Z,100897.25
2019-06-07T04:56:16.331Z,100891.97
2019-06-07T04:58:45.805Z,100892.89
2019-06-07T05:01:26.664Z,100888.42
2019-06-07T05:03:46.528Z,100886.08
2019-06-07T05:06:15.928Z,100886.39
2019-06-07T05:08:45.847Z,100886.16
2019-06-07T05:11:15.270Z,100888.66
2019-06-07T05:13:44.702Z,100890.55
2019-06-07T05:16:14.108Z,100888.73
2019-06-07T05:18:43.592Z,100889.22
2019-06-07T05:21:13.535Z,100883.94
2019-06-07T05:24:05.363Z,100891.05
2019-06-07T05:26:14.177Z,100881.47
2019-06-07T05:28:43.592Z,100883.20
2019-06-07T05:31:13.098Z,100883.30
2019-06-07T05:33:43.534Z,100886.02
2019-06-07T05:36:13.125Z,100881.81
2019-06-07T05:38:44.999Z,100877.77
2019-06-07T05:41:14.648Z,100869.98
2019-06-07T05:43:49.815Z,100860.19
2019-06-07T05:46:15.222Z,100859.78
2019-06-07T05:48:44.629Z,100852.74
2019-06-07T05:51:14.067Z,100838.88
2019-06-07T05:53:45.971Z,100826.59
2019-06-07T05:56:15.515Z,100821.22
2019-06-07T05:58:45.160Z,100820.21
2019-06-07T06:01:42.171Z,100812.50
2019-06-07T06:03:48.263Z,100800.55
2019-06-07T06:06:17.845Z,100795.77
2019-06-07T06:08:47.774Z,100796.92
2019-06-07T06:11:18.653Z,100798.05
2019-06-07T06:14:05.256Z,100798.71
2019-06-07T06:16:19.232Z,100792.98
2019-06-07T06:18:49.196Z,100789.55
2019-06-07T06:21:20.426Z,100787.23
2019-06-07T06:23:51.974Z,100788.72
2019-06-07T06:26:21.277Z,100789.03
2019-06-07T06:28:50.979Z,100780.67
2019-06-07T06:31:20.411Z,100779.87
2019-06-07T06:33:50.275Z,100771.33
2019-06-07T06:36:20.393Z,100767.39
2019-06-07T06:38:51.541Z,100772.80
2019-06-07T06:41:21.270Z,100772.44
2019-06-07T06:43:52.651Z,100770.72
2019-06-07T06:46:37.981Z,100766.70
2019-06-07T06:48:55.112Z,100755.93
2019-06-07T06:51:24.121Z,100741.78
2019-06-07T06:53:53.520Z,100740.64
2019-06-07T06:56:24.453Z,100737.95
2019-06-07T06:59:35.072Z,100741.19
2019-06-07T07:01:25.310Z,100725.75
2019-06-07T07:04:11.280Z,100725.98
2019-06-07T07:06:27.137Z,100722.84
2019-06-07T07:08:57.705Z,100716.30
2019-06-07T07:11:27.129Z,100706.15
2019-06-07T07:13:57.420Z,100690.41
2019-06-07T07:16:26.904Z,100681.74
2019-06-07T07:18:56.292Z,100687.80
2019-06-07T07:21:25.718Z,100686.12
2019-06-07T07:24:19.723Z,100677.89
2019-06-07T07:26:26.250Z,100674.76
2019-06-07T07:28:57.811Z,100665.78
2019-06-07T07:31:27.059Z,100659.69
2019-06-07T07:34:30.888Z,100656.16
2019-06-07T07:36:38.864Z,100654.67
2019-06-07T07:39:04.546Z,100656.88
2019-06-07T07:41:29.946Z,100650.62
2019-06-07T07:44:05.970Z,100648.42
2019-06-07T07:46:31.084Z,100641.38
2019-06-07T07:49:00.456Z,100639.89
2019-06-07T07:51:29.945Z,100630.48
2019-06-07T07:54:10.264Z,100624.16
2019-06-07T07:56:30.485Z,100617.84
2019-06-07T07:59:01.782Z,100618.44
2019-06-07T08:01:31.039Z,100618.52
2019-06-07T08:04:00.473Z,100615.84
2019-06-07T08:06:30.199Z,100608.11
2019-06-07T08:08:59.608Z,100607.64
2019-06-07T08:11:29.075Z,100595.03
2019-06-07T08:13:58.940Z,100593.07
2019-06-07T08:16:28.388Z,100597.41
2019-06-07T08:19:03.618Z,100593.98
2019-06-07T08:21:29.147Z,100588.56
2019-06-07T08:24:03.696Z,100588.70
2019-06-07T08:26:29.705Z,100588.41
2019-06-07T08:29:02.673Z,100586.70
2019-06-07T08:31:30.250Z,100584.58
2019-06-07T08:34:00.833Z,100586.73
2019-06-07T08:36:41.406Z,100574.91
2019-06-07T08:39:07.290Z,100568.52
2019-06-07T08:41:33.172Z,100563.23
2019-06-07T08:44:22.221Z,100556.70
2019-06-07T08:46:33.725Z,100559.07
2019-06-07T08:49:04.747Z,100551.86
2019-06-07T08:51:34.535Z,100539.28
2019-06-07T08:54:21.657Z,100540.58
2019-06-07T08:56:35.308Z,100533.31
2019-06-07T08:59:11.102Z,100530.02
2019-06-07T09:01:36.333Z,100524.70
2019-06-07T09:04:09.946Z,100523.06
2019-06-07T09:09:09.636Z,100529.84
2019-06-07T09:11:39.048Z,100533.68
2019-06-07T09:14:09.381Z,100523.82
2019-06-07T09:16:38.952Z,100514.70
2019-06-07T09:19:10.978Z,100509.14
2019-06-07T09:21:39.497Z,100504.16
2019-06-07T09:24:11.563Z,100502.63
2019-06-07T09:26:40.467Z,100499.24
2019-06-07T09:29:11.896Z,100498.83
2019-06-07T09:31:52.889Z,100494.08
2019-06-07T09:34:15.088Z,100491.70
2019-06-07T09:36:43.883Z,100487.63
2019-06-07T09:39:13.447Z,100479.36
2019-06-07T09:41:49.309Z,100477.99
2019-06-07T09:44:24.112Z,100472.50
2019-06-07T09:46:45.587Z,100458.09
2019-06-07T09:49:29.006Z,100451.94
2019-06-07T09:51:46.419Z,100451.59
2019-06-07T09:55:02.611Z,100449.08
2019-06-07T09:56:46.972Z,100448.48
2019-06-07T09:59:16.447Z,100447.52
2019-06-07T10:01:45.971Z,100438.38
2019-06-07T10:04:28.527Z,100437.48
2019-06-07T10:06:46.527Z,100434.80
2019-06-07T10:11:47.142Z,100433.36
2019-06-07T10:14:16.578Z,100434.73
2019-06-07T10:16:47.469Z,100437.24
2019-06-07T10:19:17.216Z,100437.59
2019-06-07T10:21:46.631Z,100443.28
2019-06-07T10:24:16.175Z,100438.08
2019-06-07T10:26:45.586Z,100445.43
2019-06-07T10:29:14.991Z,100430.91
2019-06-07T10:31:44.410Z,100433.59
2019-06-07T10:34:13.918Z,100438.20
2019-06-07T10:36:43.714Z,100439.97
2019-06-07T10:39:13.178Z,100445.78
2019-06-07T10:41:42.584Z,100440.10
2019-06-07T10:44:12.283Z,100453.03
2019-06-07T10:46:41.713Z,100444.95
2019-06-07T10:49:12.220Z,100452.60
2019-06-07T10:51:41.778Z,100449.90
2019-06-07T10:54:24.850Z,100461.78
2019-06-07T10:56:42.347Z,100456.88
2019-06-07T10:59:11.995Z,100470.85
2019-06-07T11:01:42.684Z,100477.81
2019-06-07T11:04:12.152Z,100476.04
2019-06-07T11:06:41.672Z,100473.63
2019-06-07T11:09:12.046Z,100475.14
2019-06-07T11:11:41.631Z,100470.39
2019-06-07T11:14:11.067Z,100477.20
2019-06-07T11:16:41.854Z,100471.91
2019-06-07T11:19:14.462Z,100476.58
2019-06-07T11:21:42.409Z,100475.47
2019-06-07T11:24:12.384Z,100479.45
2019-06-07T11:26:41.900Z,100487.38
2019-06-07T11:29:12.740Z,100482.92
2019-06-07T11:31:42.337Z,100479.77
2019-06-07T11:34:12.496Z,100483.14
2019-06-07T11:36:42.059Z,100480.82
2019-06-07T11:39:12.753Z,100495.77
2019-06-07T11:41:42.242Z,100491.44
2019-06-07T11:44:12.878Z,100486.53
2019-06-07T11:46:42.457Z,100491.59
2019-06-07T11:49:13.117Z,100491.30
2019-06-07T11:51:42.987Z,100487.82
2019-06-07T11:54:13.895Z,100492.06
2019-06-07T11:56:43.692Z,100494.65
2019-06-07T11:59:13.409Z,100499.36
2019-06-07T12:01:42.891Z,100498.73
2019-06-07T12:04:13.924Z,100494.95
2019-06-07T12:06:43.636Z,100492.00
2019-06-07T12:09:14.392Z,100493.48
2019-06-07T12:11:43.972Z,100498.39
2019-06-07T12:14:14.608Z,100505.66
2019-06-07T12:16:44.309Z,100527.61
2019-06-07T12:19:13.719Z,100537.22
2019-06-07T12:21:43.207Z,100568.19
2019-06-07T12:24:14.090Z,100559.13
2019-06-07T12:26:43.648Z,100555.59
2019-06-07T12:29:13.084Z,100572.77
2019-06-07T12:31:42.915Z,100567.67
2019-06-07T12:34:13.301Z,100574.12
2019-06-07T12:36:42.894Z,100578.45
2019-06-07T12:39:13.815Z,100581.59
2019-06-07T12:41:43.448Z,100578.78
2019-06-07T12:44:12.899Z,100574.04
2019-06-07T12:46:42.349Z,100555.52
2019-06-07T12:49:12.913Z,100561.79
2019-06-07T12:51:42.434Z,100567.05
2019-06-07T12:54:11.831Z,100565.23
2019-06-07T12:56:41.270Z,100560.82
2019-06-07T12:59:10.674Z,100555.44
2019-06-07T13:01:40.142Z,100550.19
2019-06-07T13:04:09.650Z,100548.81
2019-06-07T13:06:39.088Z,100560.11
2019-06-07T13:09:10.197Z,100569.50
2019-06-07T13:11:39.612Z,100587.75
2019-06-07T13:14:09.073Z,100577.20
2019-06-07T13:16:38.497Z,100578.11
2019-06-07T13:19:07.896Z,100567.53
2019-06-07T13:21:38.924Z,100563.41
2019-06-07T13:24:08.342Z,100547.23
2019-06-07T13:26:37.792Z,100544.78
2019-06-07T13:29:07.390Z,100551.16
2019-06-07T13:31:36.792Z,100550.56
2019-06-07T13:34:06.309Z,100545.36
2019-06-07T13:36:35.830Z,100530.24
2019-06-07T13:39:07.680Z,100517.99
2019-06-07T13:41:42.809Z,100511.57
2019-06-07T13:44:08.203Z,100477.44
2019-06-07T13:46:37.985Z,100497.24
2019-06-07T13:49:07.451Z,100507.58
2019-06-07T13:51:36.886Z,100507.72
2019-06-07T13:54:06.437Z,100503.25
2019-06-07T13:56:59.754Z,100526.90
2019-06-07T13:59:10.114Z,100531.15
2019-06-07T14:01:39.584Z,100534.19
2019-06-07T14:04:09.081Z,100531.31
2019-06-07T14:06:38.485Z,100533.59
2019-06-07T14:09:08.741Z,100527.56
2019-06-07T14:11:50.050Z,100539.78
2019-06-07T14:14:09.374Z,100536.44
2019-06-07T14:16:38.814Z,100536.51
2019-06-07T14:19:08.261Z,100534.56
2019-06-07T14:21:37.728Z,100519.45
2019-06-07T14:24:07.279Z,100523.88
2019-06-07T14:26:36.692Z,100512.09
2019-06-07T14:29:06.685Z,100508.18
2019-06-07T14:31:36.172Z,100509.98
2019-06-07T14:34:07.319Z,100507.86
2019-06-07T14:36:36.860Z,100532.47
2019-06-07T14:39:08.089Z,100524.25
2019-06-07T14:41:37.659Z,100520.19
2019-06-07T14:44:07.146Z,100528.51
2019-06-07T14:46:36.695Z,100510.91
2019-06-07T14:49:06.449Z,100516.45
2019-06-07T14:51:36.142Z,100505.98
2019-06-07T14:54:05.805Z,100517.00
2019-06-07T14:56:35.420Z,100489.28
2019-06-07T14:59:05.061Z,100502.88
2019-06-07T15:01:35.640Z,100518.36
2019-06-07T15:04:05.698Z,100477.02
2019-06-07T15:06:35.121Z,100499.03
2019-06-07T15:09:07.266Z,100539.23
2019-06-07T15:11:36.652Z,100540.58
2019-06-07T15:14:06.406Z,100539.80
2019-06-07T15:16:35.941Z,100539.69
2019-06-07T15:19:05.444Z,100529.98
2019-06-07T15:21:35.160Z,100511.13
2019-06-07T15:24:04.901Z,100507.67
2019-06-07T15:26:34.624Z,100527.79
2019-06-07T15:29:04.387Z,100542.69
2019-06-07T15:31:34.581Z,100513.05
2019-06-07T15:34:05.128Z,100515.69
2019-06-07T15:36:34.531Z,100496.47
2019-06-07T15:39:07.118Z,100499.89
2019-06-07T15:41:37.335Z,100482.50
2019-06-07T15:44:07.036Z,100502.63
2019-06-07T15:46:37.974Z,100505.45
2019-06-07T15:49:07.776Z,100499.67
2019-06-07T15:51:38.534Z,100502.55
2019-06-07T15:54:08.190Z,100484.63
2019-06-07T15:56:39.008Z,100491.42
2019-06-07T15:59:08.592Z,100498.16
2019-06-07T16:01:39.429Z,100495.36
2019-06-07T16:04:09.354Z,100483.90
2019-06-07T16:06:40.405Z,100480.95
2019-06-07T16:09:10.093Z,100479.59
2019-06-07T16:11:41.180Z,100487.80
2019-06-07T16:14:11.087Z,100478.43
2019-06-07T16:16:41.398Z,100468.45
2019-06-07T16:19:10.887Z,100483.84
2019-06-07T16:21:41.496Z,100486.40
2019-06-07T16:24:11.391Z,100483.61
2019-06-07T16:26:44.554Z,100491.81
2019-06-07T16:29:14.305Z,100476.08
2019-06-07T16:31:44.928Z,100468.75
2019-06-07T16:34:14.602Z,100472.94
2019-06-07T16:36:44.555Z,100459.38
2019-06-07T16:39:14.176Z,100454.00
2019-06-07T16:41:44.906Z,100454.37
2019-06-07T16:44:14.483Z,100446.03
2019-06-07T16:46:45.072Z,100443.72
2019-06-07T16:49:14.766Z,100446.44
2019-06-07T16:51:45.408Z,100441.45
2019-06-07T16:54:14.866Z,100439.63
2019-06-07T16:56:48.082Z,100441.86
2019-06-07T16:59:16.193Z,100428.67
2019-06-07T17:01:45.690Z,100432.59
2019-06-07T17:04:15.138Z,100428.98
2019-06-07T17:06:46.419Z,100423.33
2019-06-07T17:09:16.059Z,100433.19
2019-06-07T17:11:46.413Z,100434.03
2019-06-07T17:14:16.074Z,100438.30
2019-06-07T17:16:46.136Z,100433.08
2019-06-07T17:19:16.736Z,100439.69
2019-06-07T17:21:47.397Z,100430.29
2019-06-07T17:24:17.052Z,100433.53
2019-06-07T17:26:47.667Z,100432.84
2019-06-07T17:29:17.150Z,100430.35
2019-06-07T17:31:46.573Z,100427.52
2019-06-07T17:34:15.975Z,100424.78
2019-06-07T17:36:46.426Z,100433.34
2019-06-07T17:39:15.983Z,100432.94
2019-06-07T17:41:54.846Z,100424.00
2019-06-07T17:44:21.891Z,100423.91
2019-06-07T17:46:51.791Z,100415.67
2019-06-07T17:49:21.409Z,100409.07
2019-06-07T17:51:52.222Z,100415.25
2019-06-07T17:54:22.112Z,100408.28
2019-06-07T17:56:53.201Z,100408.88
2019-06-07T17:59:22.812Z,100399.86
2019-06-07T18:02:13.497Z,100400.70
2019-06-07T18:04:23.453Z,100396.42
2019-06-07T18:06:54.319Z,100399.61
2019-06-07T18:09:25.657Z,100384.53
2019-06-07T18:11:55.090Z,100392.70
2019-06-07T18:14:24.899Z,100394.41
2019-06-07T18:16:54.859Z,100388.89
2019-06-07T18:19:24.507Z,100378.75
2019-06-07T18:21:57.563Z,100377.67
2019-06-07T18:24:25.467Z,100379.43
2019-06-07T18:26:54.890Z,100374.75
2019-06-07T18:29:24.343Z,100382.55
2019-06-07T18:31:55.103Z,100385.34
2019-06-07T18:34:24.623Z,100385.52
2019-06-07T18:36:55.222Z,100392.52
2019-06-07T18:39:25.046Z,100406.65
2019-06-07T18:41:55.424Z,100430.33
2019-06-07T18:44:24.959Z,100427.76
2019-06-07T18:46:54.603Z,100446.97
2019-06-07T18:49:24.043Z,100434.08
2019-06-07T18:52:12.873Z,100432.71
2019-06-07T18:54:42.340Z,100424.02
2019-06-07T18:57:12.458Z,100422.90
2019-06-07T18:59:42.062Z,100423.42
2019-06-07T19:02:11.485Z,100408.98
2019-06-07T19:04:40.882Z,100419.52
2019-06-07T19:07:10.326Z,100408.05
2019-06-07T19:09:39.789Z,100415.44
2019-06-07T19:12:09.219Z,100407.23
2019-06-07T19:14:38.610Z,100399.72
2019-06-07T19:17:08.014Z,100397.59
2019-06-07T19:19:37.549Z,100395.26
2019-06-07T19:22:07.034Z,100392.78
2019-06-07T19:24:36.767Z,100387.55
2019-06-07T19:27:06.306Z,100395.21
2019-06-07T19:29:35.744Z,100399.17
2019-06-07T19:32:05.207Z,100395.56
2019-06-07T19:34:34.626Z,100394.57
2019-06-07T19:37:04.065Z,100397.20
2019-06-07T19:39:33.465Z,100399.45
2019-06-07T19:42:02.999Z,100396.46
2019-06-07T19:44:32.411Z,100388.73
2019-06-07T19:47:02.721Z,100399.84
2019-06-07T19:49:32.508Z,100403.06
2019-06-07T19:52:03.171Z,100400.41
2019-06-07T19:54:32.838Z,100403.66
2019-06-07T19:57:03.680Z,100404.92
2019-06-07T19:59:33.207Z,100416.92
2019-06-07T20:02:04.087Z,100403.58
2019-06-07T20:04:33.551Z,100413.41
2019-06-07T20:07:03.917Z,100409.16
2019-06-07T20:09:34.488Z,100417.06
2019-06-07T20:12:04.751Z,100419.06
2019-06-07T20:14:34.363Z,100412.97
2019-06-07T20:17:05.475Z,100440.27
2019-06-07T20:19:35.144Z,100437.52
2019-06-07T20:22:05.523Z,100447.39
2019-06-07T20:24:37.934Z,100467.13
2019-06-07T20:27:06.198Z,100458.02
2019-06-07T20:29:35.596Z,100445.72
2019-06-07T20:32:05.133Z,100458.86
2019-06-07T20:34:34.550Z,100454.26
2019-06-07T20:37:05.991Z,100457.87
2019-06-07T20:39:35.164Z,100469.22
2019-06-07T20:42:05.895Z,100474.78
2019-06-07T20:44:35.525Z,100466.08
2019-06-07T20:47:06.263Z,100481.34
2019-06-07T20:49:35.797Z,100473.15
2019-06-07T20:52:06.606Z,100469.38
2019-06-07T20:54:36.535Z,100479.36
2019-06-07T20:57:06.776Z,100480.20
2019-06-07T20:59:36.307Z,100493.53
2019-06-07T21:02:07.243Z,100499.66
2019-06-07T21:04:36.708Z,100525.54
2019-06-07T21:07:08.006Z,100510.16
2019-06-07T21:09:37.300Z,100517.34
2019-06-07T21:12:07.905Z,100512.42
2019-06-07T21:14:37.681Z,100503.23
2019-06-07T21:17:08.245Z,100500.95
2019-06-07T21:19:37.714Z,100495.38
2019-06-07T21:22:07.200Z,100496.38
2019-06-07T21:24:36.599Z,100496.22
2019-06-07T21:27:07.420Z,100499.98
2019-06-07T21:29:36.925Z,100494.08
2019-06-07T21:32:07.545Z,100496.69
2019-06-07T21:34:37.116Z,100488.48
2019-06-07T21:37:07.805Z,100494.59
2019-06-07T21:39:37.426Z,100494.94
2019-06-07T21:42:08.085Z,100483.92
2019-06-07T21:44:37.626Z,100471.27
2019-06-07T21:47:07.052Z,100464.91
2019-06-07T21:49:36.444Z,100465.05
2019-06-07T21:52:06.509Z,100472.26
2019-06-07T21:54:35.935Z,100484.05
2019-06-07T21:57:06.848Z,100472.60
2019-06-07T21:59:36.339Z,100490.63
2019-06-07T22:02:07.447Z,100475.89
2019-06-07T22:04:37.099Z,100470.13
2019-06-07T22:07:07.871Z,100476.55
2019-06-07T22:09:37.433Z,100471.13
2019-06-07T22:12:07.993Z,100471.95
2019-06-07T22:14:37.537Z,100472.29
2019-06-07T22:17:08.173Z,100479.84
2019-06-07T22:19:37.756Z,100487.85
2019-06-07T22:22:08.896Z,100481.31
2019-06-07T22:24:38.816Z,100481.13
2019-06-07T22:27:09.144Z,100490.80
2019-06-07T22:29:38.620Z,100482.74
2019-06-07T22:32:08.773Z,100484.23
2019-06-07T22:34:38.711Z,100506.20
2019-06-07T22:37:09.259Z,100502.60
2019-06-07T22:39:38.828Z,100482.10
2019-06-07T22:42:08.826Z,100502.78
2019-06-07T22:44:40.149Z,100497.84
2019-06-07T22:47:10.106Z,100482.95
2019-06-07T22:49:39.798Z,100515.37
2019-06-07T22:52:12.574Z,100498.32
2019-06-07T22:54:40.332Z,100508.16
2019-06-07T22:57:18.303Z,100518.63
2019-06-07T22:59:47.927Z,100508.97
2019-06-07T23:02:18.790Z,100500.76
2019-06-07T23:04:48.342Z,100522.38
2019-06-07T23:07:19.088Z,100536.81
2019-06-07T23:09:48.571Z,100526.69
2019-06-07T23:12:19.447Z,100524.39
2019-06-07T23:14:49.071Z,100532.25
2019-06-07T23:17:20.357Z,100532.27
2019-06-07T23:19:49.649Z,100544.70
2019-06-07T23:22:20.156Z,100534.39
2019-06-07T23:24:49.799Z,100537.86
2019-06-07T23:27:20.656Z,100554.57
2019-06-07T23:29:50.219Z,100540.97
2019-06-07T23:32:20.241Z,100560.62
2019-06-07T23:34:50.845Z,100571.44
2019-06-07T23:37:21.307Z,100551.61
2019-06-07T23:39:50.920Z,100560.80
2019-06-07T23:42:21.724Z,100566.20
2019-06-07T23:44:51.482Z,100556.69
2019-06-07T23:47:22.342Z,100591.58
2019-06-07T23:49:51.958Z,100573.22
2019-06-07T23:52:22.113Z,100593.89
2019-06-07T23:54:51.666Z,100597.83
2019-06-07T23:57:22.556Z,100593.22
2019-06-07T23:59:52.196Z,100583.88
